createdAt,value
2023-01-09T00:02:06.052Z,-1.80
2023-01-09T00:04:33.168Z,-1.90
2023-01-09T00:07:00.107Z,-2.00
2023-01-09T00:09:26.980Z,-1.80
2023-01-09T00:11:55.141Z,-1.90
2023-01-09T00:14:25.376Z,-1.70
2023-01-09T00:16:55.385Z,-1.90
2023-01-09T00:19:22.323Z,-1.80
2023-01-09T00:21:49.406Z,-1.90
2023-01-09T00:24:16.323Z,-1.90
2023-01-09T00:26:43.234Z,-1.80
2023-01-09T00:29:11.298Z,-1.80
2023-01-09T00:31:38.182Z,-1.80
2023-01-09T00:34:07.292Z,-1.80
2023-01-09T00:36:34.209Z,-1.80
2023-01-09T00:39:01.147Z,-1.70
2023-01-09T00:41:49.674Z,-1.80
2023-01-09T00:44:20.692Z,-1.80
2023-01-09T00:46:52.960Z,-1.70
2023-01-09T00:49:20.592Z,-1.80
2023-01-09T00:51:48.061Z,-1.80
2023-01-09T00:54:17.378Z,-1.80
2023-01-09T00:56:44.656Z,-1.80
2023-01-09T00:59:11.802Z,-1.70
2023-01-09T01:01:38.861Z,-1.70
2023-01-09T01:04:25.916Z,-1.80
2023-01-09T01:07:15.988Z,-1.80
2023-01-09T01:09:43.006Z,-1.80
2023-01-09T01:12:09.898Z,-1.80
2023-01-09T01:14:38.108Z,-1.80
2023-01-09T01:17:06.425Z,-1.80
2023-01-09T01:19:36.222Z,-1.80
2023-01-09T01:22:04.029Z,-1.70
2023-01-09T01:24:31.299Z,-1.70
2023-01-09T01:26:58.245Z,-1.60
2023-01-09T01:29:25.158Z,-1.60
2023-01-09T01:31:52.323Z,-1.70
2023-01-09T01:34:19.500Z,-1.70
2023-01-09T01:36:46.378Z,-1.70
2023-01-09T01:39:13.344Z,-1.70
2023-01-09T01:41:40.185Z,-1.70
2023-01-09T01:44:45.676Z,-1.60
2023-01-09T01:47:14.092Z,-1.60
2023-01-09T01:49:41.029Z,-1.60
2023-01-09T01:52:08.075Z,-1.70
2023-01-09T01:54:35.617Z,-1.80
2023-01-09T01:57:04.483Z,-1.70
2023-01-09T01:59:41.043Z,-1.80
2023-01-09T02:02:08.942Z,-1.50
2023-01-09T02:04:40.413Z,-1.60
2023-01-09T02:07:09.950Z,-1.70
2023-01-09T02:09:39.157Z,-1.70
2023-01-09T02:12:25.451Z,-1.60
2023-01-09T02:15:06.799Z,-1.70
2023-01-09T02:17:51.620Z,-1.60
2023-01-09T02:20:24.367Z,-1.70
2023-01-09T02:22:53.999Z,-1.70
2023-01-09T02:25:39.436Z,-1.80
2023-01-09T02:28:27.565Z,-1.70
2023-01-09T02:31:10.974Z,-1.70
2023-01-09T02:33:56.367Z,-1.60
2023-01-09T02:36:43.531Z,-1.60
2023-01-09T02:39:22.571Z,-1.70
2023-01-09T02:42:12.834Z,-1.70
2023-01-09T02:44:43.070Z,-1.60
2023-01-09T02:47:16.142Z,-1.60
2023-01-09T02:49:50.269Z,-1.60
2023-01-09T02:52:40.415Z,-1.60
2023-01-09T02:55:45.082Z,-1.50
2023-01-09T02:58:24.567Z,-1.70
2023-01-09T03:01:21.958Z,-1.70
2023-01-09T03:03:57.730Z,-1.70
2023-01-09T03:06:46.396Z,-1.60
2023-01-09T03:09:22.421Z,-1.60
2023-01-09T03:11:59.934Z,-1.60
2023-01-09T03:14:28.536Z,-1.50
2023-01-09T03:17:03.612Z,-1.50
2023-01-09T03:19:32.550Z,-1.60
2023-01-09T03:21:59.752Z,-1.60
2023-01-09T03:24:26.621Z,-1.50
2023-01-09T03:26:55.188Z,-1.60
2023-01-09T03:29:22.197Z,-1.60
2023-01-09T03:31:49.130Z,-1.50
2023-01-09T03:34:16.078Z,-1.50
2023-01-09T03:36:42.956Z,-1.50
2023-01-09T03:39:09.839Z,-1.60
2023-01-09T03:41:36.730Z,-1.50
2023-01-09T03:44:03.798Z,-1.50
2023-01-09T03:46:30.698Z,-1.60
2023-01-09T03:48:57.943Z,-1.60
2023-01-09T03:51:24.834Z,-1.60
2023-01-09T03:53:51.719Z,-1.50
2023-01-09T03:56:18.601Z,-1.70
2023-01-09T03:58:45.454Z,-1.70
2023-01-09T04:01:15.288Z,-1.60
2023-01-09T04:03:42.160Z,-1.60
2023-01-09T04:06:09.128Z,-1.60
2023-01-09T04:08:36.127Z,-1.60
2023-01-09T04:11:03.090Z,-1.60
2023-01-09T04:13:30.028Z,-1.60
2023-01-09T04:15:56.877Z,-1.60
2023-01-09T04:18:24.683Z,-1.60
2023-01-09T04:20:52.131Z,-1.60
2023-01-09T04:23:19.643Z,-1.60
2023-01-09T04:25:47.687Z,-1.60
2023-01-09T04:28:14.608Z,-1.60
2023-01-09T04:30:41.597Z,-1.60
2023-01-09T04:33:08.494Z,-1.60
2023-01-09T04:35:35.414Z,-1.60
2023-01-09T04:38:02.308Z,-1.50
2023-01-09T04:40:29.309Z,-1.60
2023-01-09T04:42:56.314Z,-1.60
2023-01-09T04:45:23.282Z,-1.50
2023-01-09T04:47:50.189Z,-1.40
2023-01-09T04:50:17.187Z,-1.60
2023-01-09T04:52:44.178Z,-1.60
2023-01-09T04:55:11.132Z,-1.50
2023-01-09T04:57:38.200Z,-1.60
2023-01-09T05:00:09.959Z,-1.60
2023-01-09T05:02:37.844Z,-1.60
2023-01-09T05:05:07.141Z,-1.60
2023-01-09T05:07:35.213Z,-1.70
2023-01-09T05:10:02.522Z,-1.40
2023-01-09T05:12:29.601Z,-1.50
2023-01-09T05:14:57.973Z,-1.60
2023-01-09T05:17:24.811Z,-1.50
2023-01-09T05:19:51.731Z,-1.50
2023-01-09T05:22:18.576Z,-1.50
2023-01-09T05:24:45.561Z,-1.50
2023-01-09T05:27:12.507Z,-1.50
2023-01-09T05:29:39.369Z,-1.50
2023-01-09T05:32:06.251Z,-1.50
2023-01-09T05:34:33.216Z,-1.40
2023-01-09T05:37:00.078Z,-1.50
2023-01-09T05:39:26.943Z,-1.50
2023-01-09T05:41:53.786Z,-1.40
2023-01-09T05:44:20.696Z,-1.50
2023-01-09T05:46:47.567Z,-1.50
2023-01-09T05:49:14.562Z,-1.60
2023-01-09T05:51:41.475Z,-1.50
2023-01-09T05:54:08.395Z,-1.50
2023-01-09T05:56:35.272Z,-1.50
2023-01-09T05:59:02.203Z,-1.40
2023-01-09T06:01:29.186Z,-1.50
2023-01-09T06:03:56.068Z,-1.40
2023-01-09T06:06:24.323Z,-1.40
2023-01-09T06:08:51.262Z,-1.50
2023-01-09T06:11:18.194Z,-1.50
2023-01-09T06:13:45.095Z,-1.40
2023-01-09T06:16:13.965Z,-1.30
2023-01-09T06:18:40.972Z,-1.30
2023-01-09T06:21:07.994Z,-1.30
2023-01-09T06:23:34.883Z,-1.30
2023-01-09T06:26:01.854Z,-1.40
2023-01-09T06:28:28.884Z,-1.30
2023-01-09T06:30:55.769Z,-1.40
2023-01-09T06:33:22.754Z,-1.40
2023-01-09T06:35:49.666Z,-1.40
2023-01-09T06:38:16.555Z,-1.40
2023-01-09T06:40:43.412Z,-1.50
2023-01-09T06:43:10.259Z,-1.40
2023-01-09T06:45:37.197Z,-1.40
2023-01-09T06:48:04.210Z,-1.40
2023-01-09T06:50:31.125Z,-1.30
2023-01-09T06:52:58.061Z,-1.40
2023-01-09T06:55:26.463Z,-1.40
2023-01-09T06:57:53.760Z,-1.30
2023-01-09T07:00:21.208Z,-1.30
2023-01-09T07:02:48.163Z,-1.20
2023-01-09T07:05:15.194Z,-1.20
2023-01-09T07:07:42.226Z,-1.20
2023-01-09T07:10:10.470Z,-1.40
2023-01-09T07:12:37.345Z,-1.40
2023-01-09T07:15:04.615Z,-1.40
2023-01-09T07:17:32.776Z,-1.40
2023-01-09T07:20:00.718Z,-1.30
2023-01-09T07:22:27.918Z,-1.30
2023-01-09T07:24:54.876Z,-1.30
2023-01-09T07:27:22.362Z,-1.20
2023-01-09T07:29:50.249Z,-1.20
2023-01-09T07:32:17.559Z,-1.30
2023-01-09T07:34:44.468Z,-1.20
2023-01-09T07:37:11.400Z,-1.20
2023-01-09T07:39:38.392Z,-1.20
2023-01-09T07:42:05.290Z,-1.10
2023-01-09T07:44:32.183Z,-1.20
2023-01-09T07:46:59.072Z,-1.20
2023-01-09T07:49:26.910Z,-1.20
2023-01-09T07:51:54.389Z,-1.10
2023-01-09T07:54:21.257Z,-1.10
2023-01-09T07:56:48.260Z,-1.00
2023-01-09T07:59:15.222Z,-1.10
2023-01-09T08:01:42.150Z,-1.20
2023-01-09T08:04:09.169Z,-1.10
2023-01-09T08:06:36.160Z,-1.10
2023-01-09T08:09:03.107Z,-1.10
2023-01-09T08:11:29.980Z,-1.10
2023-01-09T08:13:56.850Z,-1.10
2023-01-09T08:16:23.738Z,-1.10
2023-01-09T08:18:50.560Z,-1.10
2023-01-09T08:21:17.435Z,-1.00
2023-01-09T08:23:45.644Z,-1.10
2023-01-09T08:26:12.932Z,-1.00
2023-01-09T08:28:39.847Z,-1.00
2023-01-09T08:31:06.876Z,-0.90
2023-01-09T08:33:33.836Z,-1.00
2023-01-09T08:36:00.999Z,-0.90
2023-01-09T08:38:27.882Z,-0.90
2023-01-09T08:40:54.876Z,-0.90
2023-01-09T08:43:40.173Z,-1.00
2023-01-09T08:46:36.343Z,-1.00
2023-01-09T08:49:03.346Z,-0.80
2023-01-09T08:51:30.258Z,-0.80
2023-01-09T08:53:57.101Z,-0.90
2023-01-09T08:56:23.968Z,-0.80
2023-01-09T08:58:50.893Z,-0.80
2023-01-09T09:01:19.062Z,-0.80
2023-01-09T09:03:46.007Z,-0.80
2023-01-09T09:06:12.992Z,-0.80
2023-01-09T09:08:39.869Z,-0.90
2023-01-09T09:11:06.778Z,-0.80
2023-01-09T09:13:33.633Z,-0.80
2023-01-09T09:16:00.529Z,-0.80
2023-01-09T09:18:27.430Z,-0.90
2023-01-09T09:20:54.350Z,-0.70
2023-01-09T09:23:22.722Z,-0.80
2023-01-09T09:25:49.698Z,-0.70
2023-01-09T09:28:16.632Z,-0.60
2023-01-09T09:30:43.475Z,-0.70
2023-01-09T09:33:10.396Z,-0.70
2023-01-09T09:35:37.750Z,-0.70
2023-01-09T09:38:05.979Z,-0.70
2023-01-09T09:40:51.825Z,-0.80
2023-01-09T09:43:58.517Z,-0.80
2023-01-09T09:46:59.969Z,-0.80
2023-01-09T09:49:43.007Z,-0.70
2023-01-09T09:52:39.193Z,-0.70
2023-01-09T09:55:25.254Z,-0.60
2023-01-09T09:57:52.994Z,-0.80
2023-01-09T10:00:23.465Z,-0.70
2023-01-09T10:03:08.203Z,-0.80
2023-01-09T10:05:43.747Z,-0.80
2023-01-09T10:08:57.406Z,-0.70
2023-01-09T10:11:38.143Z,-0.60
2023-01-09T10:14:06.371Z,-0.70
2023-01-09T10:16:50.885Z,-0.60
2023-01-09T10:19:29.721Z,-0.60
2023-01-09T10:22:15.277Z,-0.60
2023-01-09T10:25:07.154Z,-0.60
2023-01-09T10:27:52.572Z,-0.60
2023-01-09T10:30:33.398Z,-0.60
2023-01-09T10:33:18.392Z,-0.60
2023-01-09T10:35:57.220Z,-0.50
2023-01-09T10:38:29.263Z,-0.50
2023-01-09T10:41:03.988Z,-0.50
2023-01-09T10:43:41.742Z,-0.50
2023-01-09T10:46:15.870Z,-0.60
2023-01-09T10:48:52.830Z,-0.60
2023-01-09T10:51:24.265Z,-0.60
2023-01-09T10:53:55.997Z,-0.50
2023-01-09T10:56:39.731Z,-0.50
2023-01-09T10:59:09.565Z,-0.40
2023-01-09T11:01:40.609Z,-0.50
2023-01-09T11:04:34.810Z,-0.50
2023-01-09T11:07:23.813Z,-0.50
2023-01-09T11:09:58.366Z,-0.40
2023-01-09T11:12:28.205Z,-0.50
2023-01-09T11:14:55.494Z,-0.50
2023-01-09T11:17:26.992Z,-0.40
2023-01-09T11:20:16.019Z,-0.50
2023-01-09T11:22:48.173Z,-0.40
2023-01-09T11:25:18.615Z,-0.50
2023-01-09T11:28:03.879Z,-0.50
2023-01-09T11:30:34.120Z,-0.50
2023-01-09T11:33:01.224Z,-0.40
2023-01-09T11:35:34.133Z,-0.50
2023-01-09T11:38:21.854Z,-0.40
2023-01-09T11:41:00.708Z,-0.40
2023-01-09T11:43:30.941Z,-0.50
2023-01-09T11:46:02.038Z,-0.40
2023-01-09T11:48:37.970Z,-0.40
2023-01-09T11:51:22.613Z,-0.30
2023-01-09T11:54:14.487Z,-0.30
2023-01-09T11:56:41.405Z,-0.40
2023-01-09T11:59:20.500Z,-0.40
2023-01-09T12:02:12.911Z,-0.40
2023-01-09T12:04:48.508Z,-0.40
2023-01-09T12:08:06.071Z,-0.50
2023-01-09T12:10:59.849Z,-0.30
2023-01-09T12:13:46.959Z,-0.30
2023-01-09T12:16:58.540Z,-0.40
2023-01-09T12:19:43.777Z,-0.40
2023-01-09T12:23:01.614Z,-0.40
2023-01-09T12:25:45.905Z,-0.40
2023-01-09T12:28:47.446Z,-0.40
2023-01-09T12:31:32.294Z,-0.30
2023-01-09T12:34:25.910Z,-0.30
2023-01-09T12:37:19.636Z,-0.20
2023-01-09T12:40:28.060Z,-0.40
2023-01-09T12:43:10.447Z,-0.40
2023-01-09T12:46:07.636Z,-0.40
2023-01-09T12:48:40.551Z,-0.30
2023-01-09T12:51:31.628Z,-0.40
2023-01-09T12:54:14.414Z,-0.40
2023-01-09T12:56:57.547Z,-0.50
2023-01-09T12:59:43.704Z,-0.40
2023-01-09T13:02:32.646Z,-0.40
2023-01-09T13:05:06.620Z,-0.20
2023-01-09T13:07:44.209Z,-0.20
2023-01-09T13:10:27.938Z,-0.20
2023-01-09T13:12:58.989Z,-0.30
2023-01-09T13:15:47.551Z,-0.50
2023-01-09T13:18:32.577Z,-0.40
2023-01-09T13:21:01.240Z,-0.40
2023-01-09T13:23:55.370Z,-0.50
2023-01-09T13:26:24.390Z,-0.50
2023-01-09T13:29:04.287Z,-0.40
2023-01-09T13:31:44.548Z,-0.40
2023-01-09T13:34:21.736Z,-0.40
2023-01-09T13:36:52.226Z,-0.50
2023-01-09T13:39:24.192Z,-0.50
2023-01-09T13:42:36.476Z,-0.50
2023-01-09T13:45:23.342Z,-0.50
2023-01-09T13:48:29.316Z,-0.50
2023-01-09T13:51:35.048Z,-0.60
2023-01-09T13:54:01.960Z,-0.50
2023-01-09T13:56:28.939Z,-0.50
2023-01-09T13:58:55.791Z,-0.50
2023-01-09T14:01:35.417Z,-0.40
2023-01-09T14:04:21.269Z,-0.50
2023-01-09T14:07:19.892Z,-0.50
2023-01-09T14:10:08.651Z,-0.50
2023-01-09T14:12:41.547Z,-0.30
2023-01-09T14:15:34.034Z,-0.40
2023-01-09T14:18:03.583Z,-0.50
2023-01-09T14:20:39.607Z,-0.50
2023-01-09T14:23:31.555Z,-0.60
2023-01-09T14:25:55.650Z,-0.60
2023-01-09T14:28:27.464Z,-0.70
2023-01-09T14:30:54.330Z,-0.60
2023-01-09T14:33:25.273Z,-0.60
2023-01-09T14:36:24.333Z,-0.60
2023-01-09T14:39:00.384Z,-0.60
2023-01-09T14:42:06.876Z,-0.60
2023-01-09T14:44:42.996Z,-0.70
2023-01-09T14:47:31.109Z,-0.70
2023-01-09T14:50:06.472Z,-0.70
2023-01-09T14:52:40.779Z,-0.60
2023-01-09T14:55:50.680Z,-0.70
2023-01-09T14:58:23.796Z,-0.70
2023-01-09T15:01:04.842Z,-0.70
2023-01-09T15:03:44.225Z,-0.70
2023-01-09T15:06:17.995Z,-0.60
2023-01-09T15:08:46.617Z,-0.70
2023-01-09T15:11:14.262Z,-0.80
2023-01-09T15:13:50.214Z,-0.70
2023-01-09T15:16:25.249Z,-0.70
2023-01-09T15:18:59.943Z,-0.70
2023-01-09T15:21:32.685Z,-0.70
2023-01-09T15:24:21.805Z,-0.70
2023-01-09T15:27:05.318Z,-0.80
2023-01-09T15:29:32.264Z,-0.70
2023-01-09T15:32:07.620Z,-0.80
2023-01-09T15:34:34.891Z,-0.80
2023-01-09T15:37:03.132Z,-0.90
2023-01-09T15:39:36.216Z,-0.80
2023-01-09T15:42:22.299Z,-0.90
2023-01-09T15:44:51.012Z,-0.80
2023-01-09T15:47:22.941Z,-0.80
2023-01-09T15:49:50.994Z,-0.90
2023-01-09T15:52:18.409Z,-0.80
2023-01-09T15:54:46.716Z,-0.90
2023-01-09T15:57:25.807Z,-0.80
2023-01-09T15:59:57.165Z,-0.80
2023-01-09T16:02:44.487Z,-0.80
2023-01-09T16:05:16.684Z,-0.80
2023-01-09T16:07:48.553Z,-0.70
2023-01-09T16:10:33.661Z,-0.80
2023-01-09T16:13:01.509Z,-0.90
2023-01-09T16:15:33.119Z,-0.90
2023-01-09T16:18:07.159Z,-0.80
2023-01-09T16:20:34.596Z,-0.90
2023-01-09T16:23:03.087Z,-0.80
2023-01-09T16:25:34.513Z,-0.80
2023-01-09T16:28:30.578Z,-0.80
2023-01-09T16:31:00.742Z,-0.90
2023-01-09T16:33:29.885Z,-0.90
2023-01-09T16:36:00.365Z,-0.90
2023-01-09T16:38:27.802Z,-0.90
2023-01-09T16:41:31.828Z,-0.90
2023-01-09T16:43:58.723Z,-0.80
2023-01-09T16:46:25.840Z,-0.70
2023-01-09T16:48:53.861Z,-0.90
2023-01-09T16:51:22.787Z,-0.90
2023-01-09T16:53:50.170Z,-0.90
2023-01-09T16:56:18.955Z,-0.90
2023-01-09T16:58:46.479Z,-0.90
2023-01-09T17:01:16.128Z,-0.90
2023-01-09T17:03:44.129Z,-0.90
2023-01-09T17:06:28.118Z,-0.90
2023-01-09T17:08:55.471Z,-0.90
2023-01-09T17:11:24.710Z,-0.90
2023-01-09T17:13:51.603Z,-0.90
2023-01-09T17:16:19.611Z,-0.90
2023-01-09T17:18:46.755Z,-1.00
2023-01-09T17:21:22.341Z,-1.00
2023-01-09T17:24:09.615Z,-1.00
2023-01-09T17:26:56.953Z,-1.00
2023-01-09T17:29:24.527Z,-1.00
2023-01-09T17:31:51.577Z,-1.00
2023-01-09T17:34:18.485Z,-1.00
2023-01-09T17:36:45.786Z,-1.00
2023-01-09T17:39:17.082Z,-1.00
2023-01-09T17:41:44.660Z,-1.00
2023-01-09T17:44:12.284Z,-1.00
2023-01-09T17:46:44.503Z,-0.90
2023-01-09T17:49:18.514Z,-1.00
2023-01-09T17:51:45.846Z,-1.00
2023-01-09T17:54:13.129Z,-0.90
2023-01-09T17:56:43.863Z,-1.00
2023-01-09T17:59:15.553Z,-1.00
2023-01-09T18:01:43.064Z,-0.90
2023-01-09T18:04:10.470Z,-1.00
2023-01-09T18:06:37.576Z,-1.00
2023-01-09T18:09:05.966Z,-1.00
2023-01-09T18:11:33.425Z,-1.00
2023-01-09T18:14:00.289Z,-1.10
2023-01-09T18:16:28.551Z,-1.10
2023-01-09T18:18:57.932Z,-1.20
2023-01-09T18:21:26.853Z,-1.10
2023-01-09T18:23:54.192Z,-1.00
2023-01-09T18:26:22.201Z,-1.10
2023-01-09T18:28:51.070Z,-1.10
2023-01-09T18:31:22.796Z,-1.10
2023-01-09T18:33:54.679Z,-1.00
2023-01-09T18:36:24.690Z,-1.10
2023-01-09T18:38:53.427Z,-1.00
2023-01-09T18:41:21.473Z,-1.10
2023-01-09T18:43:52.213Z,-1.20
2023-01-09T18:46:24.046Z,-1.10
2023-01-09T18:48:55.925Z,-1.20
2023-01-09T18:51:23.860Z,-1.20
2023-01-09T18:53:51.723Z,-1.20
2023-01-09T18:56:20.063Z,-1.20
2023-01-09T18:58:48.182Z,-1.20
2023-01-09T19:01:15.764Z,-1.20
2023-01-09T19:03:43.039Z,-1.20
2023-01-09T19:06:10.526Z,-1.10
2023-01-09T19:08:37.868Z,-1.10
2023-01-09T19:11:05.606Z,-1.00
2023-01-09T19:13:35.291Z,-1.10
2023-01-09T19:16:03.415Z,-1.10
2023-01-09T19:18:36.756Z,-1.10
2023-01-09T19:21:13.853Z,-1.10
2023-01-09T19:23:42.162Z,-1.20
2023-01-09T19:26:26.129Z,-1.20
2023-01-09T19:28:57.822Z,-1.20
2023-01-09T19:31:28.440Z,-1.20
2023-01-09T19:33:55.708Z,-1.00
2023-01-09T19:36:23.108Z,-1.20
2023-01-09T19:38:55.097Z,-1.10
2023-01-09T19:41:21.966Z,-1.10
2023-01-09T19:43:48.988Z,-1.10
2023-01-09T19:46:19.417Z,-1.10
2023-01-09T19:48:47.306Z,-1.10
2023-01-09T19:51:16.068Z,-1.10
2023-01-09T19:53:43.030Z,-1.20
2023-01-09T19:56:17.102Z,-1.30
2023-01-09T19:58:49.172Z,-1.20
2023-01-09T20:01:19.383Z,-1.30
2023-01-09T20:03:48.620Z,-1.30
2023-01-09T20:06:19.085Z,-1.30
2023-01-09T20:08:47.730Z,-1.30
2023-01-09T20:11:15.635Z,-1.40
2023-01-09T20:13:43.041Z,-1.30
2023-01-09T20:16:15.733Z,-1.30
2023-01-09T20:18:42.601Z,-1.40
2023-01-09T20:21:09.663Z,-1.30
2023-01-09T20:23:37.656Z,-1.20
2023-01-09T20:26:04.992Z,-1.30
2023-01-09T20:28:31.990Z,-1.30
2023-01-09T20:30:58.892Z,-1.30
2023-01-09T20:33:26.166Z,-1.40
2023-01-09T20:35:53.082Z,-1.30
2023-01-09T20:38:20.034Z,-1.30
2023-01-09T20:40:46.967Z,-1.30
2023-01-09T20:43:14.404Z,-1.30
2023-01-09T20:45:41.441Z,-1.40
2023-01-09T20:48:11.069Z,-1.40
2023-01-09T20:50:38.492Z,-1.40
2023-01-09T20:53:07.724Z,-1.40
2023-01-09T20:55:34.769Z,-1.40
2023-01-09T20:58:01.769Z,-1.30
2023-01-09T21:00:32.034Z,-1.30
2023-01-09T21:02:59.777Z,-1.40
2023-01-09T21:05:26.738Z,-1.40
2023-01-09T21:07:53.714Z,-1.40
2023-01-09T21:10:20.559Z,-1.30
2023-01-09T21:12:47.650Z,-1.30
2023-01-09T21:15:16.750Z,-1.30
2023-01-09T21:17:44.069Z,-1.30
2023-01-09T21:20:14.008Z,-1.40
2023-01-09T21:22:40.957Z,-1.40
2023-01-09T21:25:08.515Z,-1.40
2023-01-09T21:27:40.994Z,-1.40
2023-01-09T21:30:08.872Z,-1.50
2023-01-09T21:32:35.821Z,-1.40
2023-01-09T21:35:06.087Z,-1.40
2023-01-09T21:37:35.299Z,-1.40
2023-01-09T21:40:02.770Z,-1.50
2023-01-09T21:42:48.451Z,-1.50
2023-01-09T21:45:35.834Z,-1.60
2023-01-09T21:48:06.536Z,-1.60
2023-01-09T21:50:33.860Z,-1.60
2023-01-09T21:53:00.723Z,-1.60
2023-01-09T21:55:28.089Z,-1.60
2023-01-09T21:57:56.222Z,-1.60
2023-01-09T22:00:24.549Z,-1.60
2023-01-09T22:02:51.651Z,-1.60
2023-01-09T22:05:18.566Z,-1.60
2023-01-09T22:07:45.549Z,-1.60
2023-01-09T22:10:12.831Z,-1.50
2023-01-09T22:12:59.916Z,-1.70
2023-01-09T22:15:26.787Z,-1.60
2023-01-09T22:17:53.639Z,-1.60
2023-01-09T22:20:20.529Z,-1.60
2023-01-09T22:22:49.442Z,-1.60
2023-01-09T22:25:16.650Z,-1.70
2023-01-09T22:27:43.952Z,-1.60
2023-01-09T22:30:11.740Z,-1.70
2023-01-09T22:32:38.572Z,-1.60
2023-01-09T22:35:06.135Z,-1.60
2023-01-09T22:37:34.098Z,-1.60
2023-01-09T22:40:01.001Z,-1.70
2023-01-09T22:42:27.886Z,-1.60
2023-01-09T22:44:54.865Z,-1.60
2023-01-09T22:47:21.720Z,-1.60
2023-01-09T22:49:53.325Z,-1.70
2023-01-09T22:52:20.793Z,-1.70
2023-01-09T22:54:48.122Z,-1.60
2023-01-09T22:57:15.292Z,-1.60
2023-01-09T22:59:42.162Z,-1.70
2023-01-09T23:02:09.075Z,-1.60
2023-01-09T23:04:36.025Z,-1.60
2023-01-09T23:07:02.896Z,-1.60
2023-01-09T23:09:29.753Z,-1.60
2023-01-09T23:12:02.292Z,-1.60
2023-01-09T23:14:37.305Z,-1.60
2023-01-09T23:17:06.162Z,-1.60
2023-01-09T23:19:33.870Z,-1.60
2023-01-09T23:22:01.899Z,-1.50
2023-01-09T23:24:29.297Z,-1.50
2023-01-09T23:26:57.243Z,-1.60
2023-01-09T23:29:25.273Z,-1.60
2023-01-09T23:31:53.838Z,-1.60
2023-01-09T23:34:25.645Z,-1.60
2023-01-09T23:36:54.298Z,-1.60
2023-01-09T23:39:21.429Z,-1.60
2023-01-09T23:42:07.062Z,-1.60
2023-01-09T23:44:36.285Z,-1.70
2023-01-09T23:47:03.684Z,-1.70
2023-01-09T23:49:30.664Z,-1.70
2023-01-09T23:51:57.682Z,-1.60
2023-01-09T23:54:24.988Z,-1.60
2023-01-09T23:56:53.477Z,-1.60
2023-01-09T23:59:20.359Z,-1.70
